sensor_id;sensor_type;location;lat;lon;timestamp;temperature;humidity
23347;DHT22;36852;45.466;11.066;2023-04-03T00:01:23;15.10;98.90
23347;DHT22;36852;45.466;11.066;2023-04-03T00:03:51;15.10;98.80
23347;DHT22;36852;45.466;11.066;2023-04-03T00:06:19;15.00;98.10
23347;DHT22;36852;45.466;11.066;2023-04-03T00:08:47;14.90;97.20
23347;DHT22;36852;45.466;11.066;2023-04-03T00:11:15;14.90;96.80
23347;DHT22;36852;45.466;11.066;2023-04-03T00:13:44;14.80;96.60
23347;DHT22;36852;45.466;11.066;2023-04-03T00:16:12;14.70;96.50
23347;DHT22;36852;45.466;11.066;2023-04-03T00:18:40;14.70;96.00
23347;DHT22;36852;45.466;11.066;2023-04-03T00:21:11;14.70;96.10
23347;DHT22;36852;45.466;11.066;2023-04-03T00:23:40;14.70;95.70
23347;DHT22;36852;45.466;11.066;2023-04-03T00:26:08;14.70;95.70
23347;DHT22;36852;45.466;11.066;2023-04-03T00:28:39;14.60;95.50
23347;DHT22;36852;45.466;11.066;2023-04-03T00:31:07;14.60;95.40
23347;DHT22;36852;45.466;11.066;2023-04-03T00:33:35;14.60;95.70
23347;DHT22;36852;45.466;11.066;2023-04-03T00:36:07;14.60;95.40
23347;DHT22;36852;45.466;11.066;2023-04-03T00:38:36;14.50;95.50
23347;DHT22;36852;45.466;11.066;2023-04-03T00:41:07;14.50;95.40
23347;DHT22;36852;45.466;11.066;2023-04-03T00:43:35;14.50;95.60
23347;DHT22;36852;45.466;11.066;2023-04-03T00:46:04;14.50;95.60
23347;DHT22;36852;45.466;11.066;2023-04-03T00:48:45;14.40;95.50
23347;DHT22;36852;45.466;11.066;2023-04-03T00:51:12;14.40;95.30
23347;DHT22;36852;45.466;11.066;2023-04-03T00:53:55;14.40;95.10
23347;DHT22;36852;45.466;11.066;2023-04-03T00:56:25;14.40;94.80
23347;DHT22;36852;45.466;11.066;2023-04-03T00:58:58;14.40;94.40
23347;DHT22;36852;45.466;11.066;2023-04-03T01:01:27;14.40;95.10
23347;DHT22;36852;45.466;11.066;2023-04-03T01:03:55;14.40;95.10
23347;DHT22;36852;45.466;11.066;2023-04-03T01:06:26;14.40;95.10
23347;DHT22;36852;45.466;11.066;2023-04-03T01:08:58;14.40;94.70
23347;DHT22;36852;45.466;11.066;2023-04-03T01:11:26;14.40;95.10
23347;DHT22;36852;45.466;11.066;2023-04-03T01:13:54;14.40;95.00
23347;DHT22;36852;45.466;11.066;2023-04-03T01:16:23;14.40;95.10
23347;DHT22;36852;45.466;11.066;2023-04-03T01:18:51;14.30;94.80
23347;DHT22;36852;45.466;11.066;2023-04-03T01:24:33;14.30;94.80
23347;DHT22;36852;45.466;11.066;2023-04-03T01:27:06;14.30;94.70
23347;DHT22;36852;45.466;11.066;2023-04-03T01:29:37;14.30;95.10
23347;DHT22;36852;45.466;11.066;2023-04-03T01:32:06;14.30;94.80
23347;DHT22;36852;45.466;11.066;2023-04-03T01:34:34;14.30;94.50
23347;DHT22;36852;45.466;11.066;2023-04-03T01:37:02;14.30;94.60
23347;DHT22;36852;45.466;11.066;2023-04-03T01:39:29;14.30;94.50
23347;DHT22;36852;45.466;11.066;2023-04-03T01:41:58;14.30;94.30
23347;DHT22;36852;45.466;11.066;2023-04-03T01:44:31;14.30;94.50
23347;DHT22;36852;45.466;11.066;2023-04-03T01:46:59;14.30;94.70
23347;DHT22;36852;45.466;11.066;2023-04-03T01:49:27;14.30;94.10
23347;DHT22;36852;45.466;11.066;2023-04-03T01:51:55;14.30;93.80
23347;DHT22;36852;45.466;11.066;2023-04-03T01:54:23;14.20;93.80
23347;DHT22;36852;45.466;11.066;2023-04-03T01:56:51;14.20;93.90
23347;DHT22;36852;45.466;11.066;2023-04-03T01:59:19;14.20;94.10
23347;DHT22;36852;45.466;11.066;2023-04-03T02:01:46;14.20;93.80
23347;DHT22;36852;45.466;11.066;2023-04-03T02:04:15;14.20;94.10
23347;DHT22;36852;45.466;11.066;2023-04-03T02:06:42;14.20;94.00
23347;DHT22;36852;45.466;11.066;2023-04-03T02:09:10;14.20;94.10
23347;DHT22;36852;45.466;11.066;2023-04-03T02:11:41;14.10;94.30
23347;DHT22;36852;45.466;11.066;2023-04-03T02:14:09;14.10;94.40
23347;DHT22;36852;45.466;11.066;2023-04-03T02:16:37;14.10;95.00
23347;DHT22;36852;45.466;11.066;2023-04-03T02:19:05;14.10;94.70
23347;DHT22;36852;45.466;11.066;2023-04-03T02:21:32;14.10;94.70
23347;DHT22;36852;45.466;11.066;2023-04-03T02:24:00;14.10;94.30
23347;DHT22;36852;45.466;11.066;2023-04-03T02:26:28;14.10;94.10
23347;DHT22;36852;45.466;11.066;2023-04-03T02:28:56;14.10;94.30
23347;DHT22;36852;45.466;11.066;2023-04-03T02:31:23;14.00;94.50
23347;DHT22;36852;45.466;11.066;2023-04-03T02:33:51;14.10;95.10
23347;DHT22;36852;45.466;11.066;2023-04-03T02:36:19;14.00;94.90
23347;DHT22;36852;45.466;11.066;2023-04-03T02:38:51;14.00;94.90
23347;DHT22;36852;45.466;11.066;2023-04-03T02:41:19;14.00;94.90
23347;DHT22;36852;45.466;11.066;2023-04-03T02:43:49;14.00;95.20
23347;DHT22;36852;45.466;11.066;2023-04-03T02:46:17;14.00;95.10
23347;DHT22;36852;45.466;11.066;2023-04-03T02:48:44;13.90;94.80
23347;DHT22;36852;45.466;11.066;2023-04-03T02:51:12;13.90;95.00
23347;DHT22;36852;45.466;11.066;2023-04-03T02:53:39;13.90;95.50
23347;DHT22;36852;45.466;11.066;2023-04-03T02:56:09;13.90;95.70
23347;DHT22;36852;45.466;11.066;2023-04-03T02:58:37;13.90;95.90
23347;DHT22;36852;45.466;11.066;2023-04-03T03:01:06;14.00;96.20
23347;DHT22;36852;45.466;11.066;2023-04-03T03:03:34;13.90;96.20
23347;DHT22;36852;45.466;11.066;2023-04-03T03:06:09;13.90;96.60
23347;DHT22;36852;45.466;11.066;2023-04-03T03:08:39;13.90;97.30
23347;DHT22;36852;45.466;11.066;2023-04-03T03:11:07;13.90;97.70
23347;DHT22;36852;45.466;11.066;2023-04-03T03:13:38;14.00;97.90
23347;DHT22;36852;45.466;11.066;2023-04-03T03:16:06;14.10;97.80
23347;DHT22;36852;45.466;11.066;2023-04-03T03:18:35;14.20;97.90
23347;DHT22;36852;45.466;11.066;2023-04-03T03:21:04;14.20;97.90
23347;DHT22;36852;45.466;11.066;2023-04-03T03:23:34;14.20;97.90
23347;DHT22;36852;45.466;11.066;2023-04-03T03:26:04;14.30;98.30
23347;DHT22;36852;45.466;11.066;2023-04-03T03:28:34;14.30;98.10
23347;DHT22;36852;45.466;11.066;2023-04-03T03:31:04;14.30;98.10
23347;DHT22;36852;45.466;11.066;2023-04-03T03:33:32;14.40;98.30
23347;DHT22;36852;45.466;11.066;2023-04-03T03:36:01;14.40;98.30
23347;DHT22;36852;45.466;11.066;2023-04-03T03:38:29;14.40;98.10
23347;DHT22;36852;45.466;11.066;2023-04-03T03:40:58;14.40;98.20
23347;DHT22;36852;45.466;11.066;2023-04-03T03:43:27;14.50;98.10
23347;DHT22;36852;45.466;11.066;2023-04-03T03:45:55;14.60;98.50
23347;DHT22;36852;45.466;11.066;2023-04-03T03:48:23;14.60;97.90
23347;DHT22;36852;45.466;11.066;2023-04-03T03:50:51;14.60;97.80
23347;DHT22;36852;45.466;11.066;2023-04-03T03:53:21;14.70;97.70
23347;DHT22;36852;45.466;11.066;2023-04-03T03:55:50;14.70;97.60
23347;DHT22;36852;45.466;11.066;2023-04-03T04:01:05;14.70;97.70
23347;DHT22;36852;45.466;11.066;2023-04-03T04:03:35;14.70;97.70
23347;DHT22;36852;45.466;11.066;2023-04-03T04:06:05;14.80;97.80
23347;DHT22;36852;45.466;11.066;2023-04-03T04:08:33;14.80;97.80
23347;DHT22;36852;45.466;11.066;2023-04-03T04:11:01;14.80;97.80
23347;DHT22;36852;45.466;11.066;2023-04-03T04:13:29;14.80;97.80
23347;DHT22;36852;45.466;11.066;2023-04-03T04:15:58;14.80;97.80
23347;DHT22;36852;45.466;11.066;2023-04-03T04:18:25;14.80;97.80
23347;DHT22;36852;45.466;11.066;2023-04-03T04:20:53;14.80;97.90
23347;DHT22;36852;45.466;11.066;2023-04-03T04:23:22;14.80;97.90
23347;DHT22;36852;45.466;11.066;2023-04-03T04:25:50;14.80;98.10
23347;DHT22;36852;45.466;11.066;2023-04-03T04:28:19;14.70;98.00
23347;DHT22;36852;45.466;11.066;2023-04-03T04:30:52;14.70;98.10
23347;DHT22;36852;45.466;11.066;2023-04-03T04:33:20;14.70;98.20
23347;DHT22;36852;45.466;11.066;2023-04-03T04:35:48;14.70;98.20
23347;DHT22;36852;45.466;11.066;2023-04-03T04:38:17;14.70;98.40
23347;DHT22;36852;45.466;11.066;2023-04-03T04:40:46;14.70;98.30
23347;DHT22;36852;45.466;11.066;2023-04-03T04:43:14;14.70;98.40
23347;DHT22;36852;45.466;11.066;2023-04-03T04:45:44;14.70;98.40
23347;DHT22;36852;45.466;11.066;2023-04-03T04:48:13;14.70;98.40
23347;DHT22;36852;45.466;11.066;2023-04-03T04:50:40;14.70;98.50
23347;DHT22;36852;45.466;11.066;2023-04-03T04:53:08;14.70;98.50
23347;DHT22;36852;45.466;11.066;2023-04-03T04:55:36;14.70;98.70
23347;DHT22;36852;45.466;11.066;2023-04-03T04:58:05;14.60;98.60
23347;DHT22;36852;45.466;11.066;2023-04-03T05:00:33;14.60;98.70
23347;DHT22;36852;45.466;11.066;2023-04-03T05:03:01;14.60;98.90
23347;DHT22;36852;45.466;11.066;2023-04-03T05:05:29;14.60;98.90
23347;DHT22;36852;45.466;11.066;2023-04-03T05:07:57;14.60;98.80
23347;DHT22;36852;45.466;11.066;2023-04-03T05:10:25;14.60;98.90
23347;DHT22;36852;45.466;11.066;2023-04-03T05:12:53;14.60;99.00
23347;DHT22;36852;45.466;11.066;2023-04-03T05:15:20;14.60;99.90
23347;DHT22;36852;45.466;11.066;2023-04-03T05:17:48;14.60;99.40
23347;DHT22;36852;45.466;11.066;2023-04-03T05:20:17;14.60;99.10
23347;DHT22;36852;45.466;11.066;2023-04-03T05:22:48;14.60;99.10
23347;DHT22;36852;45.466;11.066;2023-04-03T05:25:16;14.60;99.00
23347;DHT22;36852;45.466;11.066;2023-04-03T05:27:44;14.60;99.10
23347;DHT22;36852;45.466;11.066;2023-04-03T05:30:12;14.70;99.50
23347;DHT22;36852;45.466;11.066;2023-04-03T05:32:41;14.60;99.30
23347;DHT22;36852;45.466;11.066;2023-04-03T05:35:12;14.60;99.40
23347;DHT22;36852;45.466;11.066;2023-04-03T05:37:41;14.60;99.60
23347;DHT22;36852;45.466;11.066;2023-04-03T05:40:09;14.60;99.90
23347;DHT22;36852;45.466;11.066;2023-04-03T05:42:39;14.60;99.60
23347;DHT22;36852;45.466;11.066;2023-04-03T05:45:09;14.70;99.50
23347;DHT22;36852;45.466;11.066;2023-04-03T05:47:37;14.70;99.70
23347;DHT22;36852;45.466;11.066;2023-04-03T05:50:05;14.70;99.70
23347;DHT22;36852;45.466;11.066;2023-04-03T05:52:38;14.70;99.90
23347;DHT22;36852;45.466;11.066;2023-04-03T05:55:08;14.70;99.90
23347;DHT22;36852;45.466;11.066;2023-04-03T05:57:44;14.70;99.90
23347;DHT22;36852;45.466;11.066;2023-04-03T06:00:14;14.70;99.90
23347;DHT22;36852;45.466;11.066;2023-04-03T06:02:44;14.70;99.90
23347;DHT22;36852;45.466;11.066;2023-04-03T06:05:14;14.80;99.90
23347;DHT22;36852;45.466;11.066;2023-04-03T06:07:42;14.80;99.90
23347;DHT22;36852;45.466;11.066;2023-04-03T06:10:12;14.80;99.90
23347;DHT22;36852;45.466;11.066;2023-04-03T06:12:40;14.80;99.90
23347;DHT22;36852;45.466;11.066;2023-04-03T06:15:10;14.80;99.80
23347;DHT22;36852;45.466;11.066;2023-04-03T06:17:39;14.70;99.50
23347;DHT22;36852;45.466;11.066;2023-04-03T06:20:08;14.70;99.30
23347;DHT22;36852;45.466;11.066;2023-04-03T06:22:39;14.70;99.50
23347;DHT22;36852;45.466;11.066;2023-04-03T06:25:10;14.70;99.50
23347;DHT22;36852;45.466;11.066;2023-04-03T06:27:38;14.70;99.80
23347;DHT22;36852;45.466;11.066;2023-04-03T06:30:07;14.70;99.90
23347;DHT22;36852;45.466;11.066;2023-04-03T06:32:35;14.80;99.90
23347;DHT22;36852;45.466;11.066;2023-04-03T06:35:04;14.90;99.90
23347;DHT22;36852;45.466;11.066;2023-04-03T06:37:33;14.90;99.90
23347;DHT22;36852;45.466;11.066;2023-04-03T06:40:01;15.00;99.90
23347;DHT22;36852;45.466;11.066;2023-04-03T06:42:29;15.00;99.90
23347;DHT22;36852;45.466;11.066;2023-04-03T06:45:01;15.10;99.90
23347;DHT22;36852;45.466;11.066;2023-04-03T06:47:30;15.10;99.90
23347;DHT22;36852;45.466;11.066;2023-04-03T06:49:58;15.20;99.90
23347;DHT22;36852;45.466;11.066;2023-04-03T06:52:27;15.20;99.90
23347;DHT22;36852;45.466;11.066;2023-04-03T06:54:55;15.30;99.90
23347;DHT22;36852;45.466;11.066;2023-04-03T06:57:25;15.30;99.90
23347;DHT22;36852;45.466;11.066;2023-04-03T06:59:54;15.30;99.90
23347;DHT22;36852;45.466;11.066;2023-04-03T07:02:23;15.30;99.90
23347;DHT22;36852;45.466;11.066;2023-04-03T07:04:51;15.40;99.90
23347;DHT22;36852;45.466;11.066;2023-04-03T07:07:20;15.40;99.90
23347;DHT22;36852;45.466;11.066;2023-04-03T07:09:47;15.40;99.90
23347;DHT22;36852;45.466;11.066;2023-04-03T07:12:15;15.40;99.90
23347;DHT22;36852;45.466;11.066;2023-04-03T07:14:43;15.40;99.90
23347;DHT22;36852;45.466;11.066;2023-04-03T07:17:11;15.40;99.90
23347;DHT22;36852;45.466;11.066;2023-04-03T07:19:39;15.50;99.90
23347;DHT22;36852;45.466;11.066;2023-04-03T07:22:08;15.50;99.90
23347;DHT22;36852;45.466;11.066;2023-04-03T07:24:41;15.50;99.90
23347;DHT22;36852;45.466;11.066;2023-04-03T07:27:10;15.50;99.90
23347;DHT22;36852;45.466;11.066;2023-04-03T07:29:39;15.50;99.90
23347;DHT22;36852;45.466;11.066;2023-04-03T07:32:08;15.50;99.90
23347;DHT22;36852;45.466;11.066;2023-04-03T07:34:36;15.60;99.90
23347;DHT22;36852;45.466;11.066;2023-04-03T07:37:04;15.60;99.90
23347;DHT22;36852;45.466;11.066;2023-04-03T07:39:33;15.60;99.90
23347;DHT22;36852;45.466;11.066;2023-04-03T07:42:03;15.60;99.90
23347;DHT22;36852;45.466;11.066;2023-04-03T07:44:31;15.70;99.90
23347;DHT22;36852;45.466;11.066;2023-04-03T07:46:59;15.70;99.90
23347;DHT22;36852;45.466;11.066;2023-04-03T07:49:27;15.70;99.90
23347;DHT22;36852;45.466;11.066;2023-04-03T07:51:55;15.70;99.90
23347;DHT22;36852;45.466;11.066;2023-04-03T07:54:23;15.70;99.90
23347;DHT22;36852;45.466;11.066;2023-04-03T07:56:50;15.70;99.90
23347;DHT22;36852;45.466;11.066;2023-04-03T07:59:18;15.70;99.90
23347;DHT22;36852;45.466;11.066;2023-04-03T08:01:46;15.80;99.90
23347;DHT22;36852;45.466;11.066;2023-04-03T08:04:14;15.80;99.90
23347;DHT22;36852;45.466;11.066;2023-04-03T08:06:42;15.80;99.90
23347;DHT22;36852;45.466;11.066;2023-04-03T08:09:13;15.80;99.90
23347;DHT22;36852;45.466;11.066;2023-04-03T08:11:44;15.80;99.90
23347;DHT22;36852;45.466;11.066;2023-04-03T08:14:13;15.90;99.90
23347;DHT22;36852;45.466;11.066;2023-04-03T08:16:45;15.90;99.90
23347;DHT22;36852;45.466;11.066;2023-04-03T08:19:14;15.90;99.90
23347;DHT22;36852;45.466;11.066;2023-04-03T08:21:45;16.00;99.90
23347;DHT22;36852;45.466;11.066;2023-04-03T08:24:14;16.00;99.90
23347;DHT22;36852;45.466;11.066;2023-04-03T08:26:42;16.10;99.90
23347;DHT22;36852;45.466;11.066;2023-04-03T08:29:13;16.10;99.90
23347;DHT22;36852;45.466;11.066;2023-04-03T08:31:41;16.10;99.90
23347;DHT22;36852;45.466;11.066;2023-04-03T08:34:09;16.10;99.90
23347;DHT22;36852;45.466;11.066;2023-04-03T08:36:37;16.20;99.90
23347;DHT22;36852;45.466;11.066;2023-04-03T08:39:04;16.20;99.90
23347;DHT22;36852;45.466;11.066;2023-04-03T08:49:44;16.40;99.90
23347;DHT22;36852;45.466;11.066;2023-04-03T08:52:19;16.40;99.90
23347;DHT22;36852;45.466;11.066;2023-04-03T08:55:00;16.40;99.90
23347;DHT22;36852;45.466;11.066;2023-04-03T08:57:38;16.40;99.90
23347;DHT22;36852;45.466;11.066;2023-04-03T09:02:47;16.50;99.90
23347;DHT22;36852;45.466;11.066;2023-04-03T09:05:19;16.50;99.70
23347;DHT22;36852;45.466;11.066;2023-04-03T09:08:01;16.50;99.60
23347;DHT22;36852;45.466;11.066;2023-04-03T09:10:33;16.50;99.50
23347;DHT22;36852;45.466;11.066;2023-04-03T09:13:16;16.60;99.00
23347;DHT22;36852;45.466;11.066;2023-04-03T09:15:44;16.60;98.70
23347;DHT22;36852;45.466;11.066;2023-04-03T09:23:33;16.70;98.70
23347;DHT22;36852;45.466;11.066;2023-04-03T09:26:08;16.80;98.60
23347;DHT22;36852;45.466;11.066;2023-04-03T09:28:39;16.80;98.50
23347;DHT22;36852;45.466;11.066;2023-04-03T09:31:22;16.90;98.70
23347;DHT22;36852;45.466;11.066;2023-04-03T09:33:53;16.90;98.70
23347;DHT22;36852;45.466;11.066;2023-04-03T09:39:26;17.00;98.20
23347;DHT22;36852;45.466;11.066;2023-04-03T09:44:35;17.10;98.00
23347;DHT22;36852;45.466;11.066;2023-04-03T09:47:30;17.20;97.60
23347;DHT22;36852;45.466;11.066;2023-04-03T09:52:51;17.30;96.40
23347;DHT22;36852;45.466;11.066;2023-04-03T09:55:22;17.20;95.80
23347;DHT22;36852;45.466;11.066;2023-04-03T09:57:51;17.30;95.20
23347;DHT22;36852;45.466;11.066;2023-04-03T10:00:31;17.30;95.40
23347;DHT22;36852;45.466;11.066;2023-04-03T10:02:54;17.30;95.90
23347;DHT22;36852;45.466;11.066;2023-04-03T10:05:29;17.30;95.70
23347;DHT22;36852;45.466;11.066;2023-04-03T10:10:48;17.40;95.50
23347;DHT22;36852;45.466;11.066;2023-04-03T10:13:18;17.50;95.50
23347;DHT22;36852;45.466;11.066;2023-04-03T10:15:55;17.60;94.70
23347;DHT22;36852;45.466;11.066;2023-04-03T10:21:14;17.50;92.80
23347;DHT22;36852;45.466;11.066;2023-04-03T10:29:42;17.50;92.10
23347;DHT22;36852;45.466;11.066;2023-04-03T10:34:43;17.50;92.00
23347;DHT22;36852;45.466;11.066;2023-04-03T10:37:25;17.50;92.10
23347;DHT22;36852;45.466;11.066;2023-04-03T10:40:22;17.60;92.10
23347;DHT22;36852;45.466;11.066;2023-04-03T10:42:41;17.60;91.60
23347;DHT22;36852;45.466;11.066;2023-04-03T10:50:30;17.60;91.30
23347;DHT22;36852;45.466;11.066;2023-04-03T10:55:52;17.60;91.40
23347;DHT22;36852;45.466;11.066;2023-04-03T10:58:39;17.60;91.30
23347;DHT22;36852;45.466;11.066;2023-04-03T11:01:13;17.60;90.60
23347;DHT22;36852;45.466;11.066;2023-04-03T11:03:44;17.60;91.20
23347;DHT22;36852;45.466;11.066;2023-04-03T11:06:15;17.60;91.10
23347;DHT22;36852;45.466;11.066;2023-04-03T11:08:46;17.60;90.70
23347;DHT22;36852;45.466;11.066;2023-04-03T11:11:20;17.70;90.50
23347;DHT22;36852;45.466;11.066;2023-04-03T11:13:52;17.70;90.10
23347;DHT22;36852;45.466;11.066;2023-04-03T11:16:23;17.70;89.70
23347;DHT22;36852;45.466;11.066;2023-04-03T11:18:56;17.70;90.00
23347;DHT22;36852;45.466;11.066;2023-04-03T11:21:46;17.80;90.60
23347;DHT22;36852;45.466;11.066;2023-04-03T11:24:17;17.80;90.50
23347;DHT22;36852;45.466;11.066;2023-04-03T11:26:47;17.90;90.00
23347;DHT22;36852;45.466;11.066;2023-04-03T11:29:19;17.80;87.90
23347;DHT22;36852;45.466;11.066;2023-04-03T11:34:40;17.80;89.80
23347;DHT22;36852;45.466;11.066;2023-04-03T11:40:13;18.00;90.80
23347;DHT22;36852;45.466;11.066;2023-04-03T11:42:43;18.10;90.40
23347;DHT22;36852;45.466;11.066;2023-04-03T11:48:01;18.20;88.60
23347;DHT22;36852;45.466;11.066;2023-04-03T11:58:29;18.50;88.20
23347;DHT22;36852;45.466;11.066;2023-04-03T12:01:10;18.50;87.70
23347;DHT22;36852;45.466;11.066;2023-04-03T12:08:50;18.60;84.90
23347;DHT22;36852;45.466;11.066;2023-04-03T12:11:24;18.60;84.80
23347;DHT22;36852;45.466;11.066;2023-04-03T12:16:29;18.60;83.30
23347;DHT22;36852;45.466;11.066;2023-04-03T12:29:46;18.60;84.50
23347;DHT22;36852;45.466;11.066;2023-04-03T12:35:37;18.60;82.80
23347;DHT22;36852;45.466;11.066;2023-04-03T12:44:07;18.80;83.90
23347;DHT22;36852;45.466;11.066;2023-04-03T12:46:34;18.80;83.90
23347;DHT22;36852;45.466;11.066;2023-04-03T12:49:01;18.90;82.60
23347;DHT22;36852;45.466;11.066;2023-04-03T12:57:08;18.90;80.60
23347;DHT22;36852;45.466;11.066;2023-04-03T12:59:24;18.80;80.90
23347;DHT22;36852;45.466;11.066;2023-04-03T13:01:57;18.80;81.20
23347;DHT22;36852;45.466;11.066;2023-04-03T13:04:31;18.80;80.20
23347;DHT22;36852;45.466;11.066;2023-04-03T13:06:59;18.70;79.60
23347;DHT22;36852;45.466;11.066;2023-04-03T13:09:31;18.60;80.60
23347;DHT22;36852;45.466;11.066;2023-04-03T13:12:15;18.50;78.50
23347;DHT22;36852;45.466;11.066;2023-04-03T13:14:55;18.40;78.80
23347;DHT22;36852;45.466;11.066;2023-04-03T13:17:24;18.20;79.80
23347;DHT22;36852;45.466;11.066;2023-04-03T13:19:52;18.00;80.00
23347;DHT22;36852;45.466;11.066;2023-04-03T13:24:59;17.80;82.40
23347;DHT22;36852;45.466;11.066;2023-04-03T13:27:30;17.80;83.00
23347;DHT22;36852;45.466;11.066;2023-04-03T13:30:00;17.80;81.30
23347;DHT22;36852;45.466;11.066;2023-04-03T13:32:30;17.80;82.20
23347;DHT22;36852;45.466;11.066;2023-04-03T13:34:59;17.80;82.00
23347;DHT22;36852;45.466;11.066;2023-04-03T13:37:33;17.70;82.70
23347;DHT22;36852;45.466;11.066;2023-04-03T13:40:11;17.60;83.40
23347;DHT22;36852;45.466;11.066;2023-04-03T13:42:41;17.60;84.60
23347;DHT22;36852;45.466;11.066;2023-04-03T13:53:45;17.50;83.00
23347;DHT22;36852;45.466;11.066;2023-04-03T13:56:38;17.50;84.10
23347;DHT22;36852;45.466;11.066;2023-04-03T14:07:16;17.20;83.10
23347;DHT22;36852;45.466;11.066;2023-04-03T14:09:44;17.30;83.50
23347;DHT22;36852;45.466;11.066;2023-04-03T14:15:01;17.20;84.20
23347;DHT22;36852;45.466;11.066;2023-04-03T14:17:29;17.20;84.70
23347;DHT22;36852;45.466;11.066;2023-04-03T14:20:18;17.20;84.10
23347;DHT22;36852;45.466;11.066;2023-04-03T14:22:46;17.20;83.50
23347;DHT22;36852;45.466;11.066;2023-04-03T14:25:15;17.20;83.80
23347;DHT22;36852;45.466;11.066;2023-04-03T14:27:47;17.20;83.90
23347;DHT22;36852;45.466;11.066;2023-04-03T14:30:19;17.20;84.30
23347;DHT22;36852;45.466;11.066;2023-04-03T14:32:47;17.20;84.20
23347;DHT22;36852;45.466;11.066;2023-04-03T14:35:16;17.10;84.80
23347;DHT22;36852;45.466;11.066;2023-04-03T14:37:46;17.20;84.50
23347;DHT22;36852;45.466;11.066;2023-04-03T14:40:18;17.10;83.60
23347;DHT22;36852;45.466;11.066;2023-04-03T14:42:46;17.20;84.30
23347;DHT22;36852;45.466;11.066;2023-04-03T14:45:16;17.20;85.10
23347;DHT22;36852;45.466;11.066;2023-04-03T14:47:49;17.20;84.50
23347;DHT22;36852;45.466;11.066;2023-04-03T14:50:21;17.20;85.40
23347;DHT22;36852;45.466;11.066;2023-04-03T14:52:54;17.20;86.30
23347;DHT22;36852;45.466;11.066;2023-04-03T14:55:23;17.30;85.80
23347;DHT22;36852;45.466;11.066;2023-04-03T14:57:52;17.30;86.00
23347;DHT22;36852;45.466;11.066;2023-04-03T15:00:23;17.30;85.10
23347;DHT22;36852;45.466;11.066;2023-04-03T15:02:51;17.40;85.60
23347;DHT22;36852;45.466;11.066;2023-04-03T15:05:19;17.40;85.20
23347;DHT22;36852;45.466;11.066;2023-04-03T15:07:52;17.40;84.50
23347;DHT22;36852;45.466;11.066;2023-04-03T15:10:24;17.40;84.10
23347;DHT22;36852;45.466;11.066;2023-04-03T15:12:52;17.50;84.10
23347;DHT22;36852;45.466;11.066;2023-04-03T15:15:22;17.50;83.70
23347;DHT22;36852;45.466;11.066;2023-04-03T15:17:53;17.50;83.60
23347;DHT22;36852;45.466;11.066;2023-04-03T15:20:24;17.50;84.10
23347;DHT22;36852;45.466;11.066;2023-04-03T15:22:53;17.50;83.70
23347;DHT22;36852;45.466;11.066;2023-04-03T15:25:25;17.50;83.70
23347;DHT22;36852;45.466;11.066;2023-04-03T15:27:55;17.50;83.90
23347;DHT22;36852;45.466;11.066;2023-04-03T15:30:23;17.40;84.50
23347;DHT22;36852;45.466;11.066;2023-04-03T15:32:52;17.40;83.90
23347;DHT22;36852;45.466;11.066;2023-04-03T15:35:21;17.40;83.90
23347;DHT22;36852;45.466;11.066;2023-04-03T15:37:49;17.30;84.30
23347;DHT22;36852;45.466;11.066;2023-04-03T15:40:19;17.30;83.70
23347;DHT22;36852;45.466;11.066;2023-04-03T15:45:34;17.30;82.20
23347;DHT22;36852;45.466;11.066;2023-04-03T15:48:04;17.20;83.00
23347;DHT22;36852;45.466;11.066;2023-04-03T15:50:33;17.20;82.80
23347;DHT22;36852;45.466;11.066;2023-04-03T15:53:02;17.10;81.50
23347;DHT22;36852;45.466;11.066;2023-04-03T15:55:32;17.10;80.90
23347;DHT22;36852;45.466;11.066;2023-04-03T15:58:03;17.10;81.00
23347;DHT22;36852;45.466;11.066;2023-04-03T16:00:32;17.10;80.80
23347;DHT22;36852;45.466;11.066;2023-04-03T16:03:05;17.10;79.90
23347;DHT22;36852;45.466;11.066;2023-04-03T16:05:35;17.10;80.30
23347;DHT22;36852;45.466;11.066;2023-04-03T16:08:05;17.10;80.70
23347;DHT22;36852;45.466;11.066;2023-04-03T16:10:35;17.10;80.10
23347;DHT22;36852;45.466;11.066;2023-04-03T16:13:04;17.10;79.70
23347;DHT22;36852;45.466;11.066;2023-04-03T16:15:33;17.10;81.00
23347;DHT22;36852;45.466;11.066;2023-04-03T16:18:02;17.00;78.40
23347;DHT22;36852;45.466;11.066;2023-04-03T16:20:30;16.90;77.50
23347;DHT22;36852;45.466;11.066;2023-04-03T16:22:59;16.90;78.10
23347;DHT22;36852;45.466;11.066;2023-04-03T16:25:27;16.90;77.80
23347;DHT22;36852;45.466;11.066;2023-04-03T16:27:55;16.90;77.20
23347;DHT22;36852;45.466;11.066;2023-04-03T16:30:23;16.90;75.80
23347;DHT22;36852;45.466;11.066;2023-04-03T16:32:51;16.80;76.20
23347;DHT22;36852;45.466;11.066;2023-04-03T16:35:18;16.80;75.80
23347;DHT22;36852;45.466;11.066;2023-04-03T16:37:47;16.80;75.20
23347;DHT22;36852;45.466;11.066;2023-04-03T16:40:15;16.70;75.70
23347;DHT22;36852;45.466;11.066;2023-04-03T16:42:43;16.70;75.70
23347;DHT22;36852;45.466;11.066;2023-04-03T16:45:10;16.70;75.00
23347;DHT22;36852;45.466;11.066;2023-04-03T16:47:38;16.70;75.80
23347;DHT22;36852;45.466;11.066;2023-04-03T16:50:07;16.60;75.70
23347;DHT22;36852;45.466;11.066;2023-04-03T16:55:19;16.60;74.90
23347;DHT22;36852;45.466;11.066;2023-04-03T16:57:49;16.50;74.80
23347;DHT22;36852;45.466;11.066;2023-04-03T17:00:36;16.50;74.80
23347;DHT22;36852;45.466;11.066;2023-04-03T17:03:05;16.50;74.30
23347;DHT22;36852;45.466;11.066;2023-04-03T17:05:33;16.40;74.90
23347;DHT22;36852;45.466;11.066;2023-04-03T17:08:02;16.40;75.20
23347;DHT22;36852;45.466;11.066;2023-04-03T17:10:50;16.30;75.20
23347;DHT22;36852;45.466;11.066;2023-04-03T17:13:19;16.30;75.40
23347;DHT22;36852;45.466;11.066;2023-04-03T17:15:47;16.30;75.10
23347;DHT22;36852;45.466;11.066;2023-04-03T17:18:18;16.20;74.90
23347;DHT22;36852;45.466;11.066;2023-04-03T17:20:46;16.20;75.10
23347;DHT22;36852;45.466;11.066;2023-04-03T17:23:13;16.20;76.70
23347;DHT22;36852;45.466;11.066;2023-04-03T17:25:41;16.10;75.80
23347;DHT22;36852;45.466;11.066;2023-04-03T17:28:09;16.20;74.80
23347;DHT22;36852;45.466;11.066;2023-04-03T17:30:37;16.10;74.80
23347;DHT22;36852;45.466;11.066;2023-04-03T17:33:05;16.10;73.10
23347;DHT22;36852;45.466;11.066;2023-04-03T17:35:35;16.00;72.00
23347;DHT22;36852;45.466;11.066;2023-04-03T17:38:04;16.00;71.90
23347;DHT22;36852;45.466;11.066;2023-04-03T17:40:32;16.00;71.40
23347;DHT22;36852;45.466;11.066;2023-04-03T17:43:00;15.90;70.30